Time;durP1;ratioP1;P1;durP2;ratioP2;P2;SDS_P1;SDS_P2;PMS_P1;PMS_P2;Temp;Humidity;BMP_temperature;BMP_pressure;BME280_temperature;BME280_humidity;BME280_pressure;Samples;Min_cycle;Max_cycle;Signal;HPM_P1;HPM_P2
2021/05/18 00:00:19;;;;;;;13.38;6.75;;;;;;;10.21;80.74;93079.20;1661636;86;21054;-52
2021/05/18 00:02:46;;;;;;;17.23;6.60;;;;;;;10.22;80.59;93074.61;1661531;86;21090;-52
2021/05/18 00:05:16;;;;;;;8.68;6.37;;;;;;;10.24;80.48;93068.61;1661372;86;21010;-52
2021/05/18 00:07:53;;;;;;;7.08;5.00;;;;;;;10.24;80.15;93067.23;1661458;86;21117;-51
2021/05/18 00:12:58;;;;;;;8.95;6.00;;;;;;;10.05;79.61;93047.59;1661567;86;21050;-50
2021/05/18 00:15:25;;;;;;;8.93;5.60;;;;;;;9.96;79.74;93040.09;1661487;86;21110;-51
2021/05/18 00:17:52;;;;;;;14.53;6.28;;;;;;;9.85;80.02;93035.84;1661542;86;21735;-51
2021/05/18 00:20:19;;;;;;;12.88;6.90;;;;;;;9.75;80.39;93032.50;1661586;86;21018;-52
2021/05/18 00:22:46;;;;;;;10.30;7.00;;;;;;;9.67;80.87;93027.91;1661480;86;21050;-51
2021/05/18 00:25:14;;;;;;;17.30;8.15;;;;;;;9.61;81.43;93027.10;1660073;86;21058;-52
2021/05/18 00:27:41;;;;;;;12.10;7.50;;;;;;;9.59;81.51;93026.83;1661460;86;21114;-51
2021/05/18 00:30:10;;;;;;;11.68;7.12;;;;;;;9.56;81.41;93025.03;1661247;86;21062;-51
2021/05/18 00:32:39;;;;;;;12.55;6.78;;;;;;;9.50;81.31;93024.22;1661463;86;21617;-50
2021/05/18 00:35:10;;;;;;;11.78;6.08;;;;;;;9.47;81.28;93023.81;1661329;86;21042;-51
2021/05/18 00:37:37;;;;;;;18.77;8.13;;;;;;;9.43;81.30;93013.66;1652267;86;21039;-51
2021/05/18 00:40:08;;;;;;;20.60;7.95;;;;;;;9.40;81.44;93014.63;1647203;87;21796;-50
2021/05/18 00:42:53;;;;;;;13.25;6.97;;;;;;;9.40;81.66;93020.13;1647094;86;21050;-50
2021/05/18 00:45:31;;;;;;;15.85;8.20;;;;;;;9.40;81.79;93022.23;1647178;87;20995;-52
2021/05/18 00:47:58;;;;;;;22.62;9.25;;;;;;;9.42;81.94;93025.88;1647205;86;21015;-51
2021/05/18 00:50:25;;;;;;;26.70;9.18;;;;;;;9.41;82.08;93023.00;1647199;87;21598;-51
2021/05/18 00:52:52;;;;;;;21.20;10.20;;;;;;;9.42;82.20;93019.02;1647271;87;21142;-50
2021/05/18 00:55:31;;;;;;;19.17;9.90;;;;;;;9.42;82.02;93010.78;1645870;87;21162;-52
2021/05/18 01:00:35;;;;;;;21.02;10.85;;;;;;;9.35;81.88;93007.84;1647179;86;21083;-51
2021/05/18 01:03:01;;;;;;;25.57;11.85;;;;;;;9.31;82.08;93006.53;1647070;87;21110;-52
2021/05/18 01:08:14;;;;;;;18.77;10.23;;;;;;;9.31;82.17;93010.64;1647052;87;21098;-51
2021/05/18 01:10:40;;;;;;;25.37;11.18;;;;;;;9.34;82.30;93013.80;1647170;87;21015;-51
2021/05/18 01:13:07;;;;;;;19.42;9.50;;;;;;;9.34;81.95;93013.19;1646978;87;21042;-52
2021/05/18 01:15:34;;;;;;;22.35;8.68;;;;;;;9.30;81.75;93012.65;1647130;87;21063;-51
2021/05/18 01:18:01;;;;;;;16.17;7.78;;;;;;;9.28;81.60;93019.20;1647053;87;21070;-53
2021/05/18 01:20:27;;;;;;;20.30;8.68;;;;;;;9.25;81.56;93018.06;1646999;87;21109;-50
2021/05/18 01:22:54;;;;;;;16.02;9.35;;;;;;;9.24;82.03;93015.18;1647052;87;21055;-51
2021/05/18 01:25:21;;;;;;;15.60;8.00;;;;;;;9.28;82.05;93018.47;1647054;87;21042;-50
2021/05/18 01:27:47;;;;;;;13.00;8.18;;;;;;;9.33;82.09;93015.03;1645959;87;21006;-50
2021/05/18 01:30:17;;;;;;;13.30;7.12;;;;;;;9.38;81.75;93008.84;1647040;86;21507;-51
2021/05/18 01:32:43;;;;;;;10.68;7.08;;;;;;;9.39;81.60;93007.61;1646888;86;21091;-51
2021/05/18 01:35:12;;;;;;;21.37;8.45;;;;;;;9.43;81.54;93014.41;1623915;85;21050;-50
2021/05/18 01:37:40;;;;;;;12.40;8.90;;;;;;;9.51;81.47;93020.23;1634864;87;21050;-50
2021/05/18 01:40:27;;;;;;;8.43;6.47;;;;;;;9.51;81.42;93021.61;1648406;87;21022;-51
2021/05/18 01:42:51;;;;;;;12.28;6.60;;;;;;;9.43;81.27;93010.29;1646238;87;21087;-51
2021/05/18 01:45:22;;;;;;;14.45;6.87;;;;;;;9.37;81.39;93011.45;1648278;87;21157;-51
2021/05/18 01:47:51;;;;;;;11.00;6.45;;;;;;;9.33;81.26;93013.05;1636996;87;21023;-51
2021/05/18 01:50:23;;;;;;;11.65;6.67;;;;;;;9.29;81.42;93016.59;1647988;87;21017;-52
2021/05/18 01:52:50;;;;;;;12.85;7.10;;;;;;;9.29;81.86;93014.48;1648571;87;21006;-52
2021/05/18 01:56:16;;;;;;;11.08;6.47;;;;;;;9.37;82.09;93007.34;1648518;87;21843;-51
2021/05/18 01:57:45;;;;;;;7.47;5.53;;;;;;;9.43;81.80;93006.17;1617843;87;21046;-51
2021/05/18 02:00:17;;;;;;;8.33;6.10;;;;;;;9.48;81.63;93008.25;1648423;87;21077;-51
2021/05/18 02:02:49;;;;;;;13.08;6.40;;;;;;;9.45;81.37;93009.81;1648559;87;21068;-52
2021/05/18 02:05:19;;;;;;;11.22;6.95;;;;;;;9.38;81.41;93004.73;1648180;87;21030;-51
2021/05/18 02:07:49;;;;;;;10.28;6.53;;;;;;;9.30;81.61;93005.02;1646913;87;21871;-51
2021/05/18 02:10:18;;;;;;;11.93;6.92;;;;;;;9.23;81.79;93005.45;1648337;87;21517;-51
2021/05/18 02:12:47;;;;;;;12.80;6.87;;;;;;;9.17;82.04;93007.34;1647013;87;21529;-51
2021/05/18 02:16:23;;;;;;;10.43;6.92;;;;;;;9.11;82.27;93005.16;1648599;86;21098;-52
2021/05/18 02:26:25;;;;;;;14.28;7.60;;;;;;;9.27;82.83;93016.95;1648557;87;21062;-49
2021/05/18 02:28:56;;;;;;;18.42;7.30;;;;;;;9.30;82.59;93005.78;1647841;87;21612;-52
2021/05/18 02:31:23;;;;;;;16.17;8.88;;;;;;;9.32;82.47;93021.15;1648290;87;21569;-50
2021/05/18 02:33:52;;;;;;;15.28;9.25;;;;;;;9.33;82.38;93021.89;1648346;87;21110;-51
2021/05/18 02:36:25;;;;;;;15.20;8.45;;;;;;;9.24;82.17;93022.78;1648328;86;21501;-53
2021/05/18 02:38:53;;;;;;;21.05;9.98;;;;;;;9.16;82.42;93025.04;1650312;86;21061;-50
2021/05/18 02:41:21;;;;;;;21.12;10.28;;;;;;;9.12;82.37;93021.75;1650392;86;21038;-56
2021/05/18 02:43:54;;;;;;;24.72;11.15;;;;;;;9.06;82.43;93023.67;1613894;88;21601;-54
2021/05/18 02:49:10;;;;;;;23.73;10.28;;;;;;;9.05;82.55;93029.02;1649258;86;21043;-53
2021/05/18 02:51:40;;;;;;;25.23;10.85;;;;;;;9.05;82.72;93034.51;1613887;89;20995;-52
2021/05/18 02:54:08;;;;;;;21.23;9.63;;;;;;;9.14;82.95;93027.51;1613824;89;21079;-51
2021/05/18 02:56:46;;;;;;;21.30;9.63;;;;;;;9.23;82.83;93028.77;1650372;86;21038;-50
2021/05/18 02:59:14;;;;;;;18.62;8.98;;;;;;;9.30;82.43;93029.72;1649871;86;21117;-52
2021/05/18 03:01:42;;;;;;;18.80;9.13;;;;;;;9.35;82.44;93029.02;1650242;86;21039;-55
2021/05/18 03:04:10;;;;;;;18.45;9.65;;;;;;;9.41;82.23;93024.38;1650419;85;20946;-50
2021/05/18 03:06:36;;;;;;;15.15;9.25;;;;;;;9.45;82.26;93018.05;1650277;86;21141;-55
2021/05/18 03:09:11;;;;;;;15.43;9.10;;;;;;;9.51;82.18;93024.35;1650212;86;21062;-55
2021/05/18 03:11:39;;;;;;;13.95;8.28;;;;;;;9.56;82.04;93033.27;1650457;86;21318;-54
2021/05/18 03:14:07;;;;;;;15.45;7.92;;;;;;;9.57;81.78;93030.65;1650278;86;21530;-53
2021/05/18 03:16:36;;;;;;;14.60;8.30;;;;;;;9.57;81.68;93033.39;1650317;85;21098;-54
2021/05/18 03:19:05;;;;;;;22.48;8.90;;;;;;;9.54;81.81;93032.39;1649293;87;21089;-55
2021/05/18 03:21:32;;;;;;;13.20;7.35;;;;;;;9.60;82.10;93029.71;1650410;87;21133;-53
2021/05/18 03:23:59;;;;;;;13.72;7.95;;;;;;;9.64;81.92;93030.25;1650281;86;21116;-55
2021/05/18 03:26:28;;;;;;;10.38;7.12;;;;;;;9.67;81.89;93031.42;1650310;86;21112;-53
2021/05/18 03:28:58;;;;;;;15.10;7.47;;;;;;;9.73;81.93;93038.33;1650352;86;20999;-51
2021/05/18 03:34:28;;;;;;;17.65;11.90;;;;;;;9.99;81.63;93039.12;1650354;87;21015;-50
2021/05/18 03:36:57;;;;;;;19.27;12.25;;;;;;;10.09;81.22;93036.36;1614100;89;21206;-51
2021/05/18 03:39:24;;;;;;;16.35;12.07;;;;;;;10.15;81.00;93039.94;1613743;86;21643;-52
2021/05/18 03:42:10;;;;;;;16.45;8.58;;;;;;;10.20;80.84;93042.71;1613854;89;21003;-51
2021/05/18 03:52:42;;;;;;;13.13;8.30;;;;;;;10.18;80.21;93049.95;1650302;86;20990;-54
2021/05/18 04:03:07;;;;;;;15.30;7.22;;;;;;;10.34;80.45;93053.48;1650420;87;21713;-51
2021/05/18 04:18:58;;;;;;;11.63;9.73;;;;;;;10.71;79.86;93059.80;1650156;87;21573;-56
2021/05/18 04:21:49;;;;;;;18.90;9.28;;;;;;;10.82;79.65;93057.24;1647973;86;21486;-52
2021/05/18 04:24:41;;;;;;;20.23;8.68;;;;;;;10.93;79.40;93068.34;1641450;86;21161;-52
2021/05/18 04:48:23;;;;;;;12.70;6.90;;;;;;;11.26;77.37;93059.53;1636875;86;21086;-51
2021/05/18 05:01:03;;;;;;;19.30;6.45;;;;;;;11.55;76.39;93036.53;1650279;87;21494;-53
2021/05/18 05:14:08;;;;;;;25.08;10.35;;;;;;;12.00;75.68;93012.67;1650249;86;21034;-53
2021/05/18 05:16:36;;;;;;;22.48;9.60;;;;;;;12.05;75.52;93012.69;1653859;85;21171;-54
2021/05/18 05:19:03;;;;;;;17.45;8.65;;;;;;;12.12;75.58;93021.84;1653099;86;21582;-53
2021/05/18 05:21:32;;;;;;;17.37;8.13;;;;;;;12.27;75.52;93020.26;1659880;86;21148;-54
2021/05/18 05:24:00;;;;;;;19.20;7.33;;;;;;;12.43;75.12;93015.39;1659639;86;21077;-54
2021/05/18 05:26:29;;;;;;;22.37;6.80;;;;;;;12.56;74.10;93010.88;1638659;86;21056;-56
2021/05/18 05:28:56;;;;;;;11.55;4.37;;;;;;;12.70;71.95;93013.38;1634879;86;21209;-54
2021/05/18 05:31:23;;;;;;;11.83;2.65;;;;;;;12.85;68.82;93010.35;1650143;85;21046;-53
2021/05/18 05:33:50;;;;;;;13.68;4.00;;;;;;;13.04;66.89;93005.87;1646588;86;21840;-54
2021/05/18 05:36:17;;;;;;;6.65;2.85;;;;;;;13.21;65.20;92998.28;1636867;85;21130;-58
2021/05/18 05:38:44;;;;;;;12.30;3.42;;;;;;;13.41;64.35;92998.00;1626555;86;21657;-54
2021/05/18 05:41:11;;;;;;;9.43;3.30;;;;;;;13.58;64.03;93002.81;1657749;85;21144;-52
2021/05/18 05:43:40;;;;;;;9.73;2.87;;;;;;;13.79;63.03;93004.00;1677496;85;21575;-54
2021/05/18 05:46:08;;;;;;;7.53;2.70;;;;;;;13.93;62.02;93007.83;1665655;85;22309;-53
2021/05/18 05:48:36;;;;;;;5.85;1.50;;;;;;;14.05;61.21;93007.13;1631389;86;21173;-54
2021/05/18 05:51:04;;;;;;;4.67;2.55;;;;;;;14.13;60.31;93011.61;1621120;86;21114;-56
2021/05/18 05:53:31;;;;;;;5.08;1.80;;;;;;;14.19;59.82;93021.30;1610401;86;22332;-60
2021/05/18 05:55:58;;;;;;;5.17;1.82;;;;;;;14.24;59.81;93008.82;1651374;86;21115;-58
2021/05/18 05:58:28;;;;;;;17.32;2.37;;;;;;;14.35;59.45;93003.85;1653821;85;21176;-55
2021/05/18 06:00:53;;;;;;;10.55;2.30;;;;;;;14.43;58.09;93002.14;1654761;85;21033;-53
2021/05/18 06:03:21;;;;;;;4.25;1.60;;;;;;;14.50;57.84;93008.52;1651833;85;21133;-60
2021/05/18 06:05:53;;;;;;;10.23;2.50;;;;;;;14.56;58.03;93003.69;1652173;85;21050;-56
2021/05/18 06:08:21;;;;;;;6.17;1.70;;;;;;;14.66;57.54;93011.78;1651493;85;21192;-56
2021/05/18 06:10:53;;;;;;;8.63;1.67;;;;;;;14.72;57.46;93002.82;1652530;85;21129;-54
2021/05/18 06:13:43;;;;;;;4.53;1.90;;;;;;;14.82;57.71;92992.17;1645933;85;21089;-54
2021/05/18 06:48:10;;;;;;;6.87;1.50;;;;;;;15.50;53.43;92999.45;1654029;85;21089;-56
2021/05/18 06:50:38;;;;;;;10.98;2.25;;;;;;;15.60;53.22;92993.69;1655054;85;21117;-60
2021/05/18 06:53:06;;;;;;;21.37;2.27;;;;;;;15.75;53.26;93000.19;1650101;85;21109;-56
2021/05/18 06:55:34;;;;;;;3.45;2.25;;;;;;;15.79;52.84;92995.09;1652797;85;21095;-57
2021/05/18 07:00:39;;;;;;;10.70;1.80;;;;;;;15.83;52.97;92997.70;1655276;85;21105;-57
2021/05/18 07:03:14;;;;;;;11.28;2.90;;;;;;;15.87;53.02;93002.30;1642046;86;22243;-53
2021/05/18 07:05:51;;;;;;;14.68;1.80;;;;;;;15.89;52.33;93009.46;1642119;86;21125;-55
2021/05/18 07:10:49;;;;;;;6.58;1.80;;;;;;;15.88;52.18;92999.64;1648316;86;21641;-54
2021/05/18 07:13:20;;;;;;;3.83;1.80;;;;;;;15.86;52.82;92996.64;1654555;85;21482;-55
2021/05/18 07:15:51;;;;;;;5.37;1.80;;;;;;;15.91;52.68;93006.17;1653873;85;21144;-53
2021/05/18 07:18:19;;;;;;;5.75;1.85;;;;;;;15.86;52.99;93010.51;1646495;85;21062;-56
2021/05/18 07:20:46;;;;;;;5.45;1.32;;;;;;;15.84;53.18;93007.52;1647436;86;21876;-55
2021/05/18 07:23:16;;;;;;;14.65;2.25;;;;;;;15.90;53.04;93002.64;1657440;85;21128;-54
2021/05/18 07:25:42;;;;;;;4.20;1.65;;;;;;;15.94;52.62;93009.28;1656985;86;21627;-56
2021/05/18 07:28:09;;;;;;;7.25;1.65;;;;;;;15.94;52.92;93014.18;1643919;85;21184;-58
2021/05/18 07:30:38;;;;;;;17.15;2.08;;;;;;;15.93;53.23;93009.91;1635618;86;21108;-59
2021/05/18 07:33:06;;;;;;;7.30;1.70;;;;;;;15.92;53.01;93009.06;1648207;86;21118;-60
2021/05/18 07:35:35;;;;;;;5.17;1.90;;;;;;;15.88;52.73;93019.05;1649412;85;21035;-58
2021/05/18 07:38:03;;;;;;;9.88;2.02;;;;;;;15.79;52.83;93020.81;1653663;85;21766;-57
2021/05/18 07:40:30;;;;;;;6.53;1.90;;;;;;;15.72;52.98;93019.99;1640912;86;21102;-59
2021/05/18 07:42:59;;;;;;;4.78;1.40;;;;;;;15.70;52.91;93025.31;1635037;86;21772;-57
2021/05/18 07:45:27;;;;;;;3.62;1.45;;;;;;;15.68;53.15;93023.70;1653898;86;21055;-63
2021/05/18 07:47:59;;;;;;;11.05;2.80;;;;;;;15.70;53.52;93030.86;1635570;86;21142;-55
2021/05/18 07:50:41;;;;;;;4.42;1.50;;;;;;;15.71;53.78;93025.42;1624920;86;21089;-57
2021/05/18 08:02:20;;;;;;;27.10;3.62;;;;;;;15.61;53.60;93025.68;1583023;89;21103;-59
2021/05/18 08:06:32;;;;;;;6.97;1.90;;;;;;;15.55;53.71;93024.97;1569009;89;21151;-57
2021/05/18 08:08:58;;;;;;;9.23;2.33;;;;;;;15.52;53.56;93034.33;1594415;88;21028;-55
2021/05/18 08:11:26;;;;;;;3.70;1.60;;;;;;;15.49;53.79;93029.83;1619154;88;21186;-58
2021/05/18 08:13:55;;;;;;;5.20;1.77;;;;;;;15.48;54.00;93030.34;1613260;88;21135;-57
2021/05/18 08:19:15;;;;;;;14.95;1.70;;;;;;;15.53;53.44;93032.33;1592283;88;21163;-61
2021/05/18 08:21:49;;;;;;;5.42;1.55;;;;;;;15.58;53.91;93039.17;1559292;89;21154;-55
2021/05/18 10:36:08;;;;;;;5.12;2.35;;;;;;;16.90;50.11;93102.77;1614077;88;21168;-57
2021/05/18 10:38:46;;;;;;;3.90;1.60;;;;;;;16.75;49.32;93098.30;1608440;88;21130;-58
2021/05/18 10:41:22;;;;;;;3.20;1.70;;;;;;;16.59;50.42;93102.05;1602913;88;21144;-57
2021/05/18 10:43:57;;;;;;;8.60;3.10;;;;;;;16.48;50.03;93096.64;1602536;89;21167;-53
2021/05/18 10:46:27;;;;;;;4.37;2.12;;;;;;;16.37;50.44;93109.29;1595762;89;21070;-61
2021/05/18 10:49:06;;;;;;;5.30;4.65;;;;;;;16.32;51.10;93107.28;1640508;85;21077;-60
2021/05/18 10:51:42;;;;;;;14.87;8.60;;;;;;;16.25;51.13;93102.98;1611590;88;21817;-57
2021/05/18 10:54:30;;;;;;;11.40;5.85;;;;;;;16.18;51.89;93100.16;1583658;90;21599;-59
2021/05/18 10:57:18;;;;;;;6.53;3.90;;;;;;;16.14;52.35;93101.72;1584823;89;21671;-60
2021/05/18 10:59:55;;;;;;;8.50;4.28;;;;;;;16.15;51.77;93103.98;1597498;89;21158;-57
2021/05/18 11:02:36;;;;;;;6.95;3.55;;;;;;;16.18;51.62;93107.09;1585984;89;21166;-59
2021/05/18 11:05:11;;;;;;;8.73;7.92;;;;;;;16.17;52.02;93113.16;1610871;88;21673;-61
2021/05/18 11:07:44;;;;;;;3.08;2.75;;;;;;;16.12;52.24;93115.36;1604218;87;20989;-57
2021/05/18 11:10:16;;;;;;;4.53;3.75;;;;;;;16.07;52.88;93118.30;1645902;86;21610;-60
2021/05/18 11:12:54;;;;;;;4.70;2.15;;;;;;;16.01;53.55;93121.02;1608197;89;21127;-59
2021/05/18 11:15:22;;;;;;;3.15;2.52;;;;;;;15.92;53.76;93124.89;1592228;89;21624;-58
2021/05/18 11:17:52;;;;;;;7.00;6.28;;;;;;;15.83;54.06;93129.41;1593718;89;21117;-62
2021/05/18 11:20:34;;;;;;;2.25;2.00;;;;;;;15.74;54.51;93122.81;1604030;87;21129;-60
2021/05/18 11:26:05;;;;;;;6.55;2.10;;;;;;;15.49;55.39;93136.53;1628500;87;21109;-60
2021/05/18 11:28:43;;;;;;;2.50;2.25;;;;;;;15.40;55.82;93138.23;1634509;86;21133;-61
2021/05/18 11:31:16;;;;;;;2.30;2.10;;;;;;;15.37;56.60;93137.88;1608210;89;21154;-55
2021/05/18 11:33:46;;;;;;;2.87;1.65;;;;;;;15.39;57.11;93142.27;1598568;89;21172;-59
2021/05/18 11:36:16;;;;;;;2.17;1.75;;;;;;;15.41;56.70;93141.77;1628949;85;21101;-56
2021/05/18 11:38:58;;;;;;;3.22;2.58;;;;;;;15.32;57.34;93142.84;1607557;89;21123;-58
2021/05/18 11:41:27;;;;;;;1.90;1.80;;;;;;;15.27;57.33;93142.85;1616844;87;21107;-59
2021/05/18 11:43:59;;;;;;;7.78;2.47;;;;;;;15.28;57.20;93152.66;1590840;88;21080;-56
2021/05/18 11:46:28;;;;;;;3.98;3.08;;;;;;;15.25;56.79;93143.38;1557074;91;21130;-57
2021/05/18 11:49:07;;;;;;;1.77;1.67;;;;;;;15.21;56.94;93149.08;1566505;91;21090;-62
2021/05/18 11:51:50;;;;;;;2.10;1.40;;;;;;;15.17;57.44;93146.58;1577463;90;21588;-57
2021/05/18 11:54:21;;;;;;;2.50;2.30;;;;;;;15.14;57.75;93154.53;1596634;89;21141;-59
2021/05/18 11:56:54;;;;;;;5.45;2.25;;;;;;;15.13;58.58;93152.27;1618044;88;21752;-58
2021/05/18 11:59:22;;;;;;;1.60;1.50;;;;;;;15.08;58.79;93152.45;1597494;88;21240;-61
2021/05/18 12:01:52;;;;;;;2.35;1.50;;;;;;;15.05;59.17;93150.71;1611292;87;21187;-59
2021/05/18 12:04:21;;;;;;;2.05;1.20;;;;;;;15.06;58.91;93151.45;1564937;91;21058;-57
2021/05/18 12:07:04;;;;;;;4.60;1.90;;;;;;;15.06;58.81;93151.45;1569726;90;21113;-57
2021/05/18 12:09:33;;;;;;;4.15;1.77;;;;;;;15.06;58.19;93159.14;1597055;87;21182;-62
2021/05/18 12:12:04;;;;;;;1.60;1.50;;;;;;;15.02;57.54;93157.25;1610067;88;21222;-59
2021/05/18 12:14:32;;;;;;;2.70;1.75;;;;;;;15.01;57.75;93152.24;1615411;88;21149;-60
2021/05/18 12:17:01;;;;;;;2.02;1.87;;;;;;;14.98;57.90;93147.09;1556527;91;21563;-62
2021/05/18 12:19:29;;;;;;;6.30;1.57;;;;;;;14.98;58.07;93152.62;1576347;89;21126;-58
2021/05/18 12:21:56;;;;;;;2.67;1.95;;;;;;;14.98;58.19;93160.94;1582513;89;21191;-61
2021/05/18 12:24:25;;;;;;;3.27;1.85;;;;;;;14.95;58.72;93146.73;1561305;90;21121;-60
2021/05/18 12:27:02;;;;;;;2.45;2.25;;;;;;;14.96;58.81;93156.55;1599869;89;21151;-60
2021/05/18 12:29:46;;;;;;;1.85;1.75;;;;;;;14.96;59.23;93160.70;1597803;89;21078;-58
2021/05/18 12:32:34;;;;;;;1.92;1.82;;;;;;;14.97;59.89;93160.08;1586265;89;22242;-57
2021/05/18 12:35:20;;;;;;;2.62;2.30;;;;;;;14.96;60.73;93162.08;1597960;89;21144;-60
2021/05/18 12:37:50;;;;;;;3.50;2.90;;;;;;;15.00;60.85;93170.13;1585180;89;21126;-55
2021/05/18 12:40:33;;;;;;;2.10;1.90;;;;;;;15.01;60.48;93165.44;1594272;88;21104;-62
2021/05/18 12:43:13;;;;;;;2.60;2.17;;;;;;;15.07;61.03;93166.17;1598704;87;21698;-57
2021/05/18 12:45:41;;;;;;;4.92;2.40;;;;;;;15.10;60.82;93169.30;1597655;89;21618;-55
2021/05/18 12:48:10;;;;;;;2.25;1.75;;;;;;;15.15;61.80;93168.50;1635322;87;21042;-56
2021/05/18 12:50:48;;;;;;;3.15;1.60;;;;;;;15.20;61.27;93172.51;1631178;87;21603;-58
2021/05/18 12:53:26;;;;;;;3.35;2.50;;;;;;;15.22;61.28;93172.09;1634162;87;21512;-56
2021/05/18 12:55:54;;;;;;;3.67;2.77;;;;;;;15.28;60.58;93183.91;1634050;86;21135;-61
2021/05/18 12:58:28;;;;;;;2.50;2.30;;;;;;;15.35;60.17;93180.60;1628503;87;21146;-60
2021/05/18 13:01:13;;;;;;;7.67;2.35;;;;;;;15.47;60.36;93176.48;1633488;86;21722;-60
2021/05/18 13:03:43;;;;;;;3.15;2.65;;;;;;;15.58;60.47;93180.53;1610742;86;21115;-56
2021/05/18 13:06:14;;;;;;;3.85;1.95;;;;;;;15.64;59.31;93187.42;1629404;86;21074;-57
2021/05/18 13:08:45;;;;;;;3.27;2.17;;;;;;;15.62;59.33;93185.19;1626823;87;21108;-56
2021/05/18 13:13:56;;;;;;;2.20;1.95;;;;;;;15.41;58.77;93192.41;1635879;87;21612;-56
2021/05/18 13:16:35;;;;;;;6.55;2.95;;;;;;;15.29;59.88;93196.52;1634747;86;21308;-58
2021/05/18 13:19:11;;;;;;;5.03;2.98;;;;;;;15.17;59.92;93193.67;1622172;87;21132;-61
2021/05/18 13:21:47;;;;;;;4.67;2.55;;;;;;;15.07;60.13;93200.03;1601293;87;21142;-62
2021/05/18 13:26:40;;;;;;;9.63;3.08;;;;;;;14.83;60.65;93203.44;1600024;89;21145;-58
2021/05/18 13:29:18;;;;;;;8.95;2.40;;;;;;;14.80;61.03;93205.84;1606475;87;22507;-60
2021/05/18 13:31:50;;;;;;;8.78;2.15;;;;;;;14.83;61.47;93202.05;1589433;89;21688;-56
2021/05/18 13:34:17;;;;;;;;;;;;;;;14.89;61.29;93204.17;1636090;86;21130;-58
2021/05/18 13:36:45;;;;;;;8.25;2.52;;;;;;;14.93;61.30;93203.27;1639170;85;20334;-55
2021/05/18 13:39:17;;;;;;;4.37;2.30;;;;;;;14.99;61.28;93202.59;1645789;85;21281;-56
2021/05/18 13:41:44;;;;;;;4.37;1.85;;;;;;;15.06;60.87;93209.61;1627040;86;21111;-59
2021/05/18 13:44:11;;;;;;;3.37;2.42;;;;;;;15.08;60.35;93212.00;1619162;88;21787;-54
2021/05/18 13:46:38;;;;;;;2.25;2.00;;;;;;;15.07;60.58;93216.03;1585443;89;21083;-61
2021/05/18 13:49:05;;;;;;;6.90;2.00;;;;;;;15.10;60.82;93207.31;1579162;89;21071;-62
2021/05/18 13:51:33;;;;;;;5.45;4.28;;;;;;;15.10;60.82;93211.47;1581069;89;21243;-63
2021/05/18 13:54:00;;;;;;;4.22;3.83;;;;;;;15.08;61.36;93215.38;1589322;89;21132;-56
2021/05/18 13:56:27;;;;;;;3.00;2.60;;;;;;;15.09;61.67;93216.89;1590559;89;21144;-59
2021/05/18 13:58:54;;;;;;;5.83;2.20;;;;;;;15.08;61.66;93214.77;1587454;89;21165;-59
2021/05/18 14:01:21;;;;;;;6.00;2.65;;;;;;;15.08;61.53;93217.53;1583179;89;21549;-58
2021/05/18 14:03:48;;;;;;;4.78;2.70;;;;;;;15.02;61.68;93218.18;1584749;89;21147;-58
2021/05/18 14:06:16;;;;;;;5.95;2.58;;;;;;;14.97;62.38;93221.74;1579034;89;21170;-56
2021/05/18 14:08:44;;;;;;;4.45;2.20;;;;;;;14.92;62.63;93221.77;1592675;88;21740;-59
2021/05/18 14:11:20;;;;;;;7.45;4.00;;;;;;;14.85;63.17;93221.66;1594247;89;21103;-61
2021/05/18 14:13:51;;;;;;;5.83;3.10;;;;;;;14.78;63.62;93224.98;1605813;88;21164;-62
2021/05/18 14:16:21;;;;;;;3.47;3.17;;;;;;;14.68;64.32;93227.17;1584466;89;21112;-54
2021/05/18 14:18:54;;;;;;;7.22;3.20;;;;;;;14.55;64.83;93224.20;1584688;89;21100;-56
2021/05/18 14:21:25;;;;;;;2.70;2.33;;;;;;;14.45;65.44;93228.52;1583574;89;21111;-56
2021/05/18 14:24:09;;;;;;;4.77;2.57;;;;;;;14.37;65.69;93226.14;1577891;89;21228;-60
2021/05/18 14:26:25;;;;;;;5.33;3.20;;;;;;;14.33;65.93;93223.53;1588626;89;21375;-57
2021/05/18 14:28:52;;;;;;;5.05;3.12;;;;;;;14.27;66.22;93228.31;1591919;88;21275;-57
2021/05/18 14:31:19;;;;;;;3.45;3.15;;;;;;;14.23;66.47;93233.36;1594903;88;21116;-57
2021/05/18 14:33:46;;;;;;;13.15;3.62;;;;;;;14.14;66.73;93235.00;1584604;89;21562;-57
2021/05/18 14:36:13;;;;;;;7.20;2.70;;;;;;;14.08;66.93;93244.68;1609956;88;21184;-58
2021/05/18 14:38:43;;;;;;;4.70;2.50;;;;;;;14.02;66.96;93240.41;1591117;89;21120;-57
2021/05/18 14:44:12;;;;;;;5.78;4.17;;;;;;;14.00;67.33;93245.70;1594683;89;21115;-59
2021/05/18 14:46:58;;;;;;;4.92;4.45;;;;;;;13.99;67.83;93247.69;1598176;88;21653;-57
2021/05/18 14:55:03;;;;;;;6.45;4.83;;;;;;;13.96;67.34;93269.45;1596483;88;21924;-56
2021/05/18 14:57:26;;;;;;;6.70;5.03;;;;;;;13.92;67.01;93259.28;1595565;89;21170;-58
2021/05/18 14:59:53;;;;;;;3.33;2.60;;;;;;;13.90;67.48;93264.56;1597284;89;21920;-56
2021/05/18 15:02:19;;;;;;;5.78;3.08;;;;;;;13.88;67.67;93262.16;1597218;88;21631;-57
2021/05/18 15:04:46;;;;;;;5.62;2.90;;;;;;;13.85;68.07;93265.94;1608412;88;21124;-58
2021/05/18 15:07:14;;;;;;;24.07;21.65;;;;;;;13.85;68.14;93261.80;1606122;88;21107;-56
2021/05/18 15:09:41;;;;;;;10.30;9.25;;;;;;;13.83;68.29;93258.78;1597592;88;21132;-58
2021/05/18 15:12:09;;;;;;;5.85;5.15;;;;;;;13.84;68.50;93267.20;1608657;88;21128;-56
2021/05/18 15:14:37;;;;;;;4.15;3.37;;;;;;;13.83;68.31;93271.22;1606878;88;21706;-57
2021/05/18 15:17:06;;;;;;;1.95;1.85;;;;;;;13.82;67.76;93273.86;1598835;88;21159;-56
2021/05/18 15:19:33;;;;;;;2.40;2.20;;;;;;;13.77;67.64;93267.69;1609312;88;21743;-57
2021/05/18 15:21:59;;;;;;;4.10;3.70;;;;;;;13.74;67.84;93264.55;1601589;88;21142;-58
2021/05/18 15:24:28;;;;;;;7.60;5.28;;;;;;;13.72;68.31;93273.97;1597958;89;21107;-58
2021/05/18 15:26:55;;;;;;;14.63;8.68;;;;;;;13.70;68.66;93270.96;1598060;88;21606;-57
2021/05/18 15:29:22;;;;;;;9.90;5.87;;;;;;;13.70;69.12;93266.20;1598393;88;21786;-58
2021/05/18 15:31:49;;;;;;;9.33;6.55;;;;;;;13.70;69.30;93267.58;1616764;86;21100;-57
2021/05/18 15:34:17;;;;;;;12.53;8.25;;;;;;;13.72;69.90;93267.83;1598489;88;21749;-57
2021/05/18 15:36:44;;;;;;;10.05;7.00;;;;;;;13.67;70.12;93264.42;1599004;89;21104;-56
2021/05/18 15:39:12;;;;;;;11.90;7.80;;;;;;;13.62;70.67;93258.91;1598700;88;21726;-57
2021/05/18 15:41:39;;;;;;;13.28;7.67;;;;;;;13.58;71.29;93263.91;1598973;89;21048;-56
2021/05/18 15:44:07;;;;;;;10.05;7.20;;;;;;;13.56;71.83;93276.09;1632842;86;21086;-56
2021/05/18 15:46:33;;;;;;;11.73;7.08;;;;;;;13.57;72.45;93269.31;1662427;85;21136;-56
2021/05/18 15:49:00;;;;;;;8.50;6.45;;;;;;;13.58;73.10;93282.64;1660529;86;21581;-56
2021/05/18 15:51:27;;;;;;;8.13;5.87;;;;;;;13.58;73.34;93280.48;1660235;86;21633;-55
2021/05/18 15:53:53;;;;;;;14.30;8.05;;;;;;;13.57;73.41;93272.08;1660318;86;21101;-57
2021/05/18 15:56:20;;;;;;;11.93;7.85;;;;;;;13.55;74.05;93278.73;1653266;85;21066;-56
2021/05/18 15:58:48;;;;;;;10.58;7.05;;;;;;;13.53;74.83;93279.87;1649436;87;21017;-55
2021/05/18 16:01:15;;;;;;;8.55;6.42;;;;;;;13.50;74.98;93280.88;1649437;87;21054;-56
2021/05/18 16:03:42;;;;;;;9.70;6.30;;;;;;;13.53;75.20;93289.53;1649456;86;21117;-57
2021/05/18 16:06:09;;;;;;;9.23;6.08;;;;;;;13.52;75.70;93286.65;1649411;87;20987;-58
2021/05/18 16:11:09;;;;;;;16.35;8.83;;;;;;;13.49;75.76;93284.89;1658987;86;21120;-56
2021/05/18 16:13:38;;;;;;;7.97;5.90;;;;;;;13.49;75.83;93293.92;1659576;86;21068;-56
2021/05/18 16:16:09;;;;;;;7.65;5.97;;;;;;;13.54;75.97;93295.19;1658690;86;21116;-57
2021/05/18 16:18:36;;;;;;;5.62;4.95;;;;;;;13.55;76.09;93290.55;1657633;86;21051;-59
2021/05/18 16:21:05;;;;;;;9.03;6.85;;;;;;;13.57;76.38;93292.80;1627606;86;21095;-57
2021/05/18 16:23:33;;;;;;;7.45;5.85;;;;;;;13.58;76.00;93286.02;1644578;85;21509;-55
2021/05/18 16:26:00;;;;;;;11.18;7.90;;;;;;;13.61;76.20;93294.70;1649433;86;21581;-56
2021/05/18 16:28:27;;;;;;;16.75;12.73;;;;;;;13.64;75.56;93297.20;1648887;87;21099;-58
2021/05/18 16:30:54;;;;;;;11.78;6.92;;;;;;;13.69;75.11;93296.48;1649511;87;21077;-55
2021/05/18 16:33:22;;;;;;;8.03;6.25;;;;;;;13.71;75.05;93298.72;1649605;87;21061;-57
2021/05/18 16:35:49;;;;;;;8.48;7.12;;;;;;;13.73;75.09;93303.11;1649619;86;21109;-56
2021/05/18 16:38:15;;;;;;;6.85;6.15;;;;;;;13.70;74.86;93293.84;1651849;86;21406;-56
2021/05/18 16:40:42;;;;;;;5.33;4.40;;;;;;;13.67;74.87;93292.70;1659119;86;21056;-56